sensor_id;sensor_type;location;lat;lon;timestamp;temperature;humidity
792;DHT22;379;49.022;12.148;2023-09-30T00:00:06;15.60;99.90
792;DHT22;379;49.022;12.148;2023-09-30T00:02:34;15.60;99.90
792;DHT22;379;49.022;12.148;2023-09-30T00:05:01;15.60;99.90
792;DHT22;379;49.022;12.148;2023-09-30T00:07:30;15.50;99.90
792;DHT22;379;49.022;12.148;2023-09-30T00:09:57;15.40;99.90
792;DHT22;379;49.022;12.148;2023-09-30T00:12:24;15.40;99.90
792;DHT22;379;49.022;12.148;2023-09-30T00:14:51;15.40;99.90
792;DHT22;379;49.022;12.148;2023-09-30T00:17:17;15.30;99.90
792;DHT22;379;49.022;12.148;2023-09-30T00:19:44;15.40;99.90
792;DHT22;379;49.022;12.148;2023-09-30T00:22:11;15.30;99.90
792;DHT22;379;49.022;12.148;2023-09-30T00:24:39;15.10;99.90
792;DHT22;379;49.022;12.148;2023-09-30T00:27:06;15.00;99.90
792;DHT22;379;49.022;12.148;2023-09-30T00:29:33;14.90;99.90
792;DHT22;379;49.022;12.148;2023-09-30T00:32:00;14.80;99.90
792;DHT22;379;49.022;12.148;2023-09-30T00:34:27;14.80;99.90
792;DHT22;379;49.022;12.148;2023-09-30T00:36:54;14.70;99.90
792;DHT22;379;49.022;12.148;2023-09-30T00:39:21;14.70;99.90
792;DHT22;379;49.022;12.148;2023-09-30T00:41:49;14.60;99.90
792;DHT22;379;49.022;12.148;2023-09-30T00:44:16;14.60;99.90
792;DHT22;379;49.022;12.148;2023-09-30T00:46:43;14.50;99.90
792;DHT22;379;49.022;12.148;2023-09-30T00:49:10;14.30;99.90
792;DHT22;379;49.022;12.148;2023-09-30T00:51:40;14.30;99.90
792;DHT22;379;49.022;12.148;2023-09-30T00:54:07;14.30;99.90
792;DHT22;379;49.022;12.148;2023-09-30T00:56:38;14.50;99.90
792;DHT22;379;49.022;12.148;2023-09-30T00:59:08;14.60;99.90
792;DHT22;379;49.022;12.148;2023-09-30T01:01:35;14.50;99.90
792;DHT22;379;49.022;12.148;2023-09-30T01:04:02;14.50;99.90
792;DHT22;379;49.022;12.148;2023-09-30T01:06:29;14.40;99.90
792;DHT22;379;49.022;12.148;2023-09-30T01:08:55;14.20;99.90
792;DHT22;379;49.022;12.148;2023-09-30T01:11:22;14.00;99.90
792;DHT22;379;49.022;12.148;2023-09-30T01:13:49;14.00;99.90
792;DHT22;379;49.022;12.148;2023-09-30T01:16:17;14.00;99.90
792;DHT22;379;49.022;12.148;2023-09-30T01:18:44;14.00;99.90
792;DHT22;379;49.022;12.148;2023-09-30T01:21:14;13.90;99.90
792;DHT22;379;49.022;12.148;2023-09-30T01:23:42;13.90;99.90
792;DHT22;379;49.022;12.148;2023-09-30T01:26:12;13.90;99.90
792;DHT22;379;49.022;12.148;2023-09-30T01:28:40;13.90;99.90
792;DHT22;379;49.022;12.148;2023-09-30T01:31:07;13.90;99.90
792;DHT22;379;49.022;12.148;2023-09-30T01:33:34;13.80;99.90
792;DHT22;379;49.022;12.148;2023-09-30T01:36:01;13.70;99.90
792;DHT22;379;49.022;12.148;2023-09-30T01:38:28;13.70;99.90
792;DHT22;379;49.022;12.148;2023-09-30T01:40:56;13.60;99.90
792;DHT22;379;49.022;12.148;2023-09-30T01:43:23;13.50;99.90
792;DHT22;379;49.022;12.148;2023-09-30T01:45:50;13.30;99.90
792;DHT22;379;49.022;12.148;2023-09-30T01:48:16;13.30;99.90
792;DHT22;379;49.022;12.148;2023-09-30T01:50:43;13.30;99.90
792;DHT22;379;49.022;12.148;2023-09-30T01:53:10;13.20;99.90
792;DHT22;379;49.022;12.148;2023-09-30T01:55:37;13.20;99.90
792;DHT22;379;49.022;12.148;2023-09-30T01:58:05;13.20;99.90
792;DHT22;379;49.022;12.148;2023-09-30T02:00:33;13.20;99.90
792;DHT22;379;49.022;12.148;2023-09-30T02:03:00;13.10;99.90
792;DHT22;379;49.022;12.148;2023-09-30T02:05:27;13.00;99.90
792;DHT22;379;49.022;12.148;2023-09-30T02:07:54;13.00;99.90
792;DHT22;379;49.022;12.148;2023-09-30T02:10:21;13.00;99.90
792;DHT22;379;49.022;12.148;2023-09-30T02:12:48;13.00;99.90
792;DHT22;379;49.022;12.148;2023-09-30T02:15:16;13.00;99.90
792;DHT22;379;49.022;12.148;2023-09-30T02:17:43;13.10;99.90
792;DHT22;379;49.022;12.148;2023-09-30T02:20:11;13.10;99.90
792;DHT22;379;49.022;12.148;2023-09-30T02:22:41;13.10;99.90
792;DHT22;379;49.022;12.148;2023-09-30T02:25:09;13.10;99.90
792;DHT22;379;49.022;12.148;2023-09-30T02:27:38;13.10;99.90
792;DHT22;379;49.022;12.148;2023-09-30T02:30:06;13.20;99.90
792;DHT22;379;49.022;12.148;2023-09-30T02:32:35;13.30;99.90
792;DHT22;379;49.022;12.148;2023-09-30T02:35:01;13.40;99.90
792;DHT22;379;49.022;12.148;2023-09-30T02:37:32;13.50;99.90
792;DHT22;379;49.022;12.148;2023-09-30T02:40:01;13.60;99.90
792;DHT22;379;49.022;12.148;2023-09-30T02:42:29;13.70;99.90
792;DHT22;379;49.022;12.148;2023-09-30T02:44:56;13.80;99.90
792;DHT22;379;49.022;12.148;2023-09-30T02:47:23;13.90;99.90
792;DHT22;379;49.022;12.148;2023-09-30T02:49:51;14.00;99.90
792;DHT22;379;49.022;12.148;2023-09-30T02:52:17;14.10;99.90
792;DHT22;379;49.022;12.148;2023-09-30T02:54:44;14.10;99.90
792;DHT22;379;49.022;12.148;2023-09-30T02:57:11;14.20;99.90
792;DHT22;379;49.022;12.148;2023-09-30T02:59:38;14.30;99.90
792;DHT22;379;49.022;12.148;2023-09-30T03:02:05;14.30;99.90
792;DHT22;379;49.022;12.148;2023-09-30T03:04:33;14.40;99.90
792;DHT22;379;49.022;12.148;2023-09-30T03:07:01;14.40;99.90
792;DHT22;379;49.022;12.148;2023-09-30T03:09:28;14.40;99.90
792;DHT22;379;49.022;12.148;2023-09-30T03:11:55;14.50;99.90
792;DHT22;379;49.022;12.148;2023-09-30T03:14:24;14.50;99.90
792;DHT22;379;49.022;12.148;2023-09-30T03:16:51;14.60;99.90
792;DHT22;379;49.022;12.148;2023-09-30T03:19:18;14.60;99.90
792;DHT22;379;49.022;12.148;2023-09-30T03:21:45;14.70;99.90
792;DHT22;379;49.022;12.148;2023-09-30T03:24:14;14.70;99.90
792;DHT22;379;49.022;12.148;2023-09-30T03:26:40;14.60;99.90
792;DHT22;379;49.022;12.148;2023-09-30T03:29:07;14.50;99.90
792;DHT22;379;49.022;12.148;2023-09-30T03:31:35;14.50;99.90
792;DHT22;379;49.022;12.148;2023-09-30T03:34:02;14.40;99.90
792;DHT22;379;49.022;12.148;2023-09-30T03:36:29;14.40;99.90
792;DHT22;379;49.022;12.148;2023-09-30T03:38:58;14.50;99.90
792;DHT22;379;49.022;12.148;2023-09-30T03:41:32;14.60;99.90
792;DHT22;379;49.022;12.148;2023-09-30T03:44:00;14.60;99.90
792;DHT22;379;49.022;12.148;2023-09-30T03:46:28;14.70;99.90
792;DHT22;379;49.022;12.148;2023-09-30T03:48:55;14.70;99.90
792;DHT22;379;49.022;12.148;2023-09-30T03:51:22;14.80;99.90
792;DHT22;379;49.022;12.148;2023-09-30T03:53:51;14.80;99.90
792;DHT22;379;49.022;12.148;2023-09-30T03:56:18;14.90;99.90
792;DHT22;379;49.022;12.148;2023-09-30T03:58:46;14.90;99.90
792;DHT22;379;49.022;12.148;2023-09-30T04:01:14;14.90;99.90
792;DHT22;379;49.022;12.148;2023-09-30T04:03:42;15.00;99.90
792;DHT22;379;49.022;12.148;2023-09-30T04:06:09;15.00;99.90
792;DHT22;379;49.022;12.148;2023-09-30T04:08:36;15.00;99.90
792;DHT22;379;49.022;12.148;2023-09-30T04:11:03;15.00;99.90
792;DHT22;379;49.022;12.148;2023-09-30T04:13:31;15.00;99.90
792;DHT22;379;49.022;12.148;2023-09-30T04:15:58;15.00;99.90
792;DHT22;379;49.022;12.148;2023-09-30T04:18:25;15.10;99.90
792;DHT22;379;49.022;12.148;2023-09-30T04:20:52;15.00;99.90
792;DHT22;379;49.022;12.148;2023-09-30T04:23:19;15.10;99.90
792;DHT22;379;49.022;12.148;2023-09-30T04:25:47;15.10;99.90
792;DHT22;379;49.022;12.148;2023-09-30T04:28:15;15.10;99.90
792;DHT22;379;49.022;12.148;2023-09-30T04:30:46;15.10;99.90
792;DHT22;379;49.022;12.148;2023-09-30T04:33:15;15.00;99.90
792;DHT22;379;49.022;12.148;2023-09-30T04:35:43;15.00;99.90
792;DHT22;379;49.022;12.148;2023-09-30T04:38:10;15.00;99.90
792;DHT22;379;49.022;12.148;2023-09-30T04:40:37;15.00;99.90
792;DHT22;379;49.022;12.148;2023-09-30T04:43:03;15.00;99.90
792;DHT22;379;49.022;12.148;2023-09-30T04:45:31;15.00;99.90
792;DHT22;379;49.022;12.148;2023-09-30T04:47:58;15.00;99.90
792;DHT22;379;49.022;12.148;2023-09-30T04:50:28;15.00;99.90
792;DHT22;379;49.022;12.148;2023-09-30T04:52:56;15.00;99.90
792;DHT22;379;49.022;12.148;2023-09-30T04:55:23;15.00;99.90
792;DHT22;379;49.022;12.148;2023-09-30T04:57:51;15.00;99.90
792;DHT22;379;49.022;12.148;2023-09-30T05:00:19;15.00;99.90
792;DHT22;379;49.022;12.148;2023-09-30T05:02:50;15.00;99.90
792;DHT22;379;49.022;12.148;2023-09-30T05:05:17;15.00;99.90
792;DHT22;379;49.022;12.148;2023-09-30T05:07:45;14.90;99.90
792;DHT22;379;49.022;12.148;2023-09-30T05:10:13;15.00;99.90
792;DHT22;379;49.022;12.148;2023-09-30T05:12:41;14.90;99.90
792;DHT22;379;49.022;12.148;2023-09-30T05:15:11;14.90;99.90
792;DHT22;379;49.022;12.148;2023-09-30T05:17:38;14.90;99.90
792;DHT22;379;49.022;12.148;2023-09-30T05:20:06;14.90;99.90
792;DHT22;379;49.022;12.148;2023-09-30T05:22:33;14.80;99.90
792;DHT22;379;49.022;12.148;2023-09-30T05:25:01;14.90;99.90
792;DHT22;379;49.022;12.148;2023-09-30T05:27:27;14.90;99.90
792;DHT22;379;49.022;12.148;2023-09-30T05:29:54;14.90;99.90
792;DHT22;379;49.022;12.148;2023-09-30T05:32:21;14.90;99.90
792;DHT22;379;49.022;12.148;2023-09-30T05:34:48;14.90;99.90
792;DHT22;379;49.022;12.148;2023-09-30T05:37:15;14.90;99.90
792;DHT22;379;49.022;12.148;2023-09-30T05:39:42;14.90;99.90
792;DHT22;379;49.022;12.148;2023-09-30T05:42:11;14.90;99.90
792;DHT22;379;49.022;12.148;2023-09-30T05:44:38;14.90;99.90
792;DHT22;379;49.022;12.148;2023-09-30T05:47:05;14.80;99.90
792;DHT22;379;49.022;12.148;2023-09-30T05:49:32;14.80;99.90
792;DHT22;379;49.022;12.148;2023-09-30T05:51:58;14.70;99.90
792;DHT22;379;49.022;12.148;2023-09-30T05:54:25;14.70;99.90
792;DHT22;379;49.022;12.148;2023-09-30T05:56:52;14.70;99.90
792;DHT22;379;49.022;12.148;2023-09-30T05:59:20;14.80;99.90
792;DHT22;379;49.022;12.148;2023-09-30T06:01:47;14.90;99.90
792;DHT22;379;49.022;12.148;2023-09-30T06:04:14;15.00;99.90
792;DHT22;379;49.022;12.148;2023-09-30T06:06:40;15.20;99.90
792;DHT22;379;49.022;12.148;2023-09-30T06:09:08;15.30;99.90
792;DHT22;379;49.022;12.148;2023-09-30T06:11:35;15.40;99.90
792;DHT22;379;49.022;12.148;2023-09-30T06:14:02;15.50;99.90
792;DHT22;379;49.022;12.148;2023-09-30T06:16:33;15.60;99.90
792;DHT22;379;49.022;12.148;2023-09-30T06:19:00;15.70;99.90
792;DHT22;379;49.022;12.148;2023-09-30T06:21:27;15.80;99.90
792;DHT22;379;49.022;12.148;2023-09-30T06:23:54;15.90;99.90
792;DHT22;379;49.022;12.148;2023-09-30T06:26:21;15.90;99.90
792;DHT22;379;49.022;12.148;2023-09-30T06:28:50;15.90;99.90
792;DHT22;379;49.022;12.148;2023-09-30T06:31:19;15.90;99.90
792;DHT22;379;49.022;12.148;2023-09-30T06:33:47;16.00;99.90
792;DHT22;379;49.022;12.148;2023-09-30T06:36:14;16.00;99.90
792;DHT22;379;49.022;12.148;2023-09-30T06:38:43;16.00;99.90
792;DHT22;379;49.022;12.148;2023-09-30T06:41:15;16.10;99.90
792;DHT22;379;49.022;12.148;2023-09-30T06:43:43;16.20;99.90
792;DHT22;379;49.022;12.148;2023-09-30T06:46:10;16.30;99.90
792;DHT22;379;49.022;12.148;2023-09-30T06:48:39;16.30;99.90
792;DHT22;379;49.022;12.148;2023-09-30T06:51:12;16.30;99.90
792;DHT22;379;49.022;12.148;2023-09-30T06:53:39;16.40;99.90
792;DHT22;379;49.022;12.148;2023-09-30T06:56:06;16.50;99.90
792;DHT22;379;49.022;12.148;2023-09-30T06:58:33;16.60;99.90
792;DHT22;379;49.022;12.148;2023-09-30T07:01:00;16.70;99.90
792;DHT22;379;49.022;12.148;2023-09-30T07:03:27;16.70;99.90
792;DHT22;379;49.022;12.148;2023-09-30T07:05:55;16.90;99.90
792;DHT22;379;49.022;12.148;2023-09-30T07:08:23;17.00;99.90
792;DHT22;379;49.022;12.148;2023-09-30T07:10:50;17.20;99.90
792;DHT22;379;49.022;12.148;2023-09-30T07:13:18;17.40;99.90
792;DHT22;379;49.022;12.148;2023-09-30T07:15:45;17.60;99.90
792;DHT22;379;49.022;12.148;2023-09-30T07:18:12;17.80;99.90
792;DHT22;379;49.022;12.148;2023-09-30T07:20:39;17.90;99.90
792;DHT22;379;49.022;12.148;2023-09-30T07:23:06;18.00;99.90
792;DHT22;379;49.022;12.148;2023-09-30T07:25:35;18.10;99.90
792;DHT22;379;49.022;12.148;2023-09-30T07:28:03;18.20;99.90
792;DHT22;379;49.022;12.148;2023-09-30T07:30:29;18.40;99.90
792;DHT22;379;49.022;12.148;2023-09-30T07:32:56;18.50;99.90
792;DHT22;379;49.022;12.148;2023-09-30T07:35:23;18.60;99.90
792;DHT22;379;49.022;12.148;2023-09-30T07:37:50;18.80;99.90
792;DHT22;379;49.022;12.148;2023-09-30T07:40:18;18.90;99.90
792;DHT22;379;49.022;12.148;2023-09-30T07:42:48;19.00;99.90
792;DHT22;379;49.022;12.148;2023-09-30T07:45:15;18.80;99.90
792;DHT22;379;49.022;12.148;2023-09-30T07:47:43;18.70;99.90
792;DHT22;379;49.022;12.148;2023-09-30T07:50:12;18.70;99.90
792;DHT22;379;49.022;12.148;2023-09-30T07:52:39;18.50;99.90
792;DHT22;379;49.022;12.148;2023-09-30T07:55:08;18.30;99.90
792;DHT22;379;49.022;12.148;2023-09-30T07:57:35;18.10;99.90
792;DHT22;379;49.022;12.148;2023-09-30T08:00:04;17.90;99.90
792;DHT22;379;49.022;12.148;2023-09-30T08:02:34;17.90;99.90
792;DHT22;379;49.022;12.148;2023-09-30T08:05:02;18.00;99.90
792;DHT22;379;49.022;12.148;2023-09-30T08:07:29;17.70;99.90
792;DHT22;379;49.022;12.148;2023-09-30T08:09:56;17.60;99.90
792;DHT22;379;49.022;12.148;2023-09-30T08:12:22;17.60;99.90
792;DHT22;379;49.022;12.148;2023-09-30T08:14:49;17.50;99.90
792;DHT22;379;49.022;12.148;2023-09-30T08:17:18;17.50;99.90
792;DHT22;379;49.022;12.148;2023-09-30T08:19:45;17.60;99.90
792;DHT22;379;49.022;12.148;2023-09-30T08:22:13;17.70;99.90
792;DHT22;379;49.022;12.148;2023-09-30T08:24:40;17.70;99.90
792;DHT22;379;49.022;12.148;2023-09-30T08:27:06;17.80;99.90
792;DHT22;379;49.022;12.148;2023-09-30T08:29:34;17.90;99.90
792;DHT22;379;49.022;12.148;2023-09-30T08:32:01;18.00;99.90
792;DHT22;379;49.022;12.148;2023-09-30T08:34:30;18.00;99.90
792;DHT22;379;49.022;12.148;2023-09-30T08:36:57;18.20;99.90
792;DHT22;379;49.022;12.148;2023-09-30T08:39:24;18.20;99.90
792;DHT22;379;49.022;12.148;2023-09-30T08:41:51;18.20;99.90
792;DHT22;379;49.022;12.148;2023-09-30T08:44:19;18.40;99.90
792;DHT22;379;49.022;12.148;2023-09-30T08:46:46;18.40;99.90
792;DHT22;379;49.022;12.148;2023-09-30T08:49:15;18.40;99.90
792;DHT22;379;49.022;12.148;2023-09-30T08:51:43;18.30;99.90
792;DHT22;379;49.022;12.148;2023-09-30T08:54:10;18.30;99.90
792;DHT22;379;49.022;12.148;2023-09-30T08:56:39;18.50;99.90
792;DHT22;379;49.022;12.148;2023-09-30T08:59:07;18.70;99.90
792;DHT22;379;49.022;12.148;2023-09-30T09:01:37;18.90;99.90
792;DHT22;379;49.022;12.148;2023-09-30T09:04:04;18.90;99.90
792;DHT22;379;49.022;12.148;2023-09-30T09:06:33;18.80;99.90
792;DHT22;379;49.022;12.148;2023-09-30T09:09:14;18.40;99.90
792;DHT22;379;49.022;12.148;2023-09-30T09:11:42;18.20;99.90
792;DHT22;379;49.022;12.148;2023-09-30T09:14:09;18.30;99.90
792;DHT22;379;49.022;12.148;2023-09-30T09:16:35;18.40;99.90
792;DHT22;379;49.022;12.148;2023-09-30T09:19:13;18.50;99.90
792;DHT22;379;49.022;12.148;2023-09-30T09:21:53;18.50;99.90
792;DHT22;379;49.022;12.148;2023-09-30T09:24:31;18.70;99.90
792;DHT22;379;49.022;12.148;2023-09-30T09:27:05;18.90;99.90
792;DHT22;379;49.022;12.148;2023-09-30T09:29:32;19.00;99.90
792;DHT22;379;49.022;12.148;2023-09-30T09:32:12;19.30;99.90
792;DHT22;379;49.022;12.148;2023-09-30T09:34:40;19.50;99.90
792;DHT22;379;49.022;12.148;2023-09-30T09:37:14;19.60;99.90
792;DHT22;379;49.022;12.148;2023-09-30T09:39:51;19.60;99.90
792;DHT22;379;49.022;12.148;2023-09-30T09:42:25;19.50;99.90
792;DHT22;379;49.022;12.148;2023-09-30T09:44:56;19.60;99.90
792;DHT22;379;49.022;12.148;2023-09-30T09:47:24;19.50;99.90
792;DHT22;379;49.022;12.148;2023-09-30T09:49:51;19.30;99.90
792;DHT22;379;49.022;12.148;2023-09-30T09:52:21;19.10;99.90
792;DHT22;379;49.022;12.148;2023-09-30T09:54:50;19.10;99.90
792;DHT22;379;49.022;12.148;2023-09-30T09:57:18;19.20;99.90
792;DHT22;379;49.022;12.148;2023-09-30T09:59:45;19.20;99.90
792;DHT22;379;49.022;12.148;2023-09-30T10:02:14;19.00;99.90
792;DHT22;379;49.022;12.148;2023-09-30T10:04:43;18.90;99.90
792;DHT22;379;49.022;12.148;2023-09-30T10:07:12;18.80;99.90
792;DHT22;379;49.022;12.148;2023-09-30T10:09:44;18.80;99.90
792;DHT22;379;49.022;12.148;2023-09-30T10:12:14;18.80;99.90
792;DHT22;379;49.022;12.148;2023-09-30T10:14:41;18.90;99.90
792;DHT22;379;49.022;12.148;2023-09-30T10:17:08;19.00;99.90
792;DHT22;379;49.022;12.148;2023-09-30T10:19:35;19.20;99.90
792;DHT22;379;49.022;12.148;2023-09-30T10:22:21;19.50;99.90
792;DHT22;379;49.022;12.148;2023-09-30T10:24:49;19.90;99.90
792;DHT22;379;49.022;12.148;2023-09-30T10:27:31;20.10;99.90
792;DHT22;379;49.022;12.148;2023-09-30T10:30:09;20.20;99.90
792;DHT22;379;49.022;12.148;2023-09-30T10:33:07;20.10;99.90
792;DHT22;379;49.022;12.148;2023-09-30T10:35:46;19.90;99.90
792;DHT22;379;49.022;12.148;2023-09-30T10:38:38;19.60;99.90
792;DHT22;379;49.022;12.148;2023-09-30T10:41:08;19.40;99.90
792;DHT22;379;49.022;12.148;2023-09-30T10:43:38;19.40;99.90
792;DHT22;379;49.022;12.148;2023-09-30T10:46:30;19.40;99.90
792;DHT22;379;49.022;12.148;2023-09-30T10:49:15;19.70;99.90
792;DHT22;379;49.022;12.148;2023-09-30T10:51:43;20.20;99.90
792;DHT22;379;49.022;12.148;2023-09-30T10:54:12;20.40;99.90
792;DHT22;379;49.022;12.148;2023-09-30T10:56:39;20.30;99.90
792;DHT22;379;49.022;12.148;2023-09-30T10:59:07;20.10;99.90
792;DHT22;379;49.022;12.148;2023-09-30T11:01:35;19.80;99.90
792;DHT22;379;49.022;12.148;2023-09-30T11:04:03;19.70;99.90
792;DHT22;379;49.022;12.148;2023-09-30T11:06:32;19.70;99.90
792;DHT22;379;49.022;12.148;2023-09-30T11:09:00;19.80;99.90
792;DHT22;379;49.022;12.148;2023-09-30T11:11:35;19.90;99.90
792;DHT22;379;49.022;12.148;2023-09-30T11:14:03;20.20;99.90
792;DHT22;379;49.022;12.148;2023-09-30T11:16:41;20.40;99.90
792;DHT22;379;49.022;12.148;2023-09-30T11:19:08;20.60;99.90
792;DHT22;379;49.022;12.148;2023-09-30T11:21:35;20.60;99.90
792;DHT22;379;49.022;12.148;2023-09-30T11:24:03;20.70;99.90
792;DHT22;379;49.022;12.148;2023-09-30T11:26:30;20.70;99.90
792;DHT22;379;49.022;12.148;2023-09-30T11:29:05;20.60;99.90
792;DHT22;379;49.022;12.148;2023-09-30T11:31:32;20.60;99.90
792;DHT22;379;49.022;12.148;2023-09-30T11:34:01;20.80;99.90
792;DHT22;379;49.022;12.148;2023-09-30T11:36:30;20.90;99.90
792;DHT22;379;49.022;12.148;2023-09-30T11:38:57;21.00;99.90
792;DHT22;379;49.022;12.148;2023-09-30T11:41:33;21.20;99.90
792;DHT22;379;49.022;12.148;2023-09-30T11:44:03;21.20;99.90
792;DHT22;379;49.022;12.148;2023-09-30T11:46:33;21.20;99.90
792;DHT22;379;49.022;12.148;2023-09-30T11:49:24;21.00;99.90
792;DHT22;379;49.022;12.148;2023-09-30T11:51:51;21.00;99.90
792;DHT22;379;49.022;12.148;2023-09-30T11:54:18;21.00;99.90
792;DHT22;379;49.022;12.148;2023-09-30T11:56:45;20.90;99.90
792;DHT22;379;49.022;12.148;2023-09-30T11:59:13;20.90;99.90
792;DHT22;379;49.022;12.148;2023-09-30T12:01:40;20.80;99.90
792;DHT22;379;49.022;12.148;2023-09-30T12:04:06;20.70;99.90
792;DHT22;379;49.022;12.148;2023-09-30T12:06:36;20.70;99.90
792;DHT22;379;49.022;12.148;2023-09-30T12:09:03;20.70;99.90
792;DHT22;379;49.022;12.148;2023-09-30T12:11:31;20.80;99.90
792;DHT22;379;49.022;12.148;2023-09-30T12:13:57;20.80;99.90
792;DHT22;379;49.022;12.148;2023-09-30T12:16:24;20.90;99.90
792;DHT22;379;49.022;12.148;2023-09-30T12:18:51;20.90;99.90
792;DHT22;379;49.022;12.148;2023-09-30T12:21:17;21.00;99.90
792;DHT22;379;49.022;12.148;2023-09-30T12:23:47;21.10;99.90
792;DHT22;379;49.022;12.148;2023-09-30T12:26:14;21.20;99.90
792;DHT22;379;49.022;12.148;2023-09-30T12:28:43;21.20;99.90
792;DHT22;379;49.022;12.148;2023-09-30T12:31:10;21.20;99.90
792;DHT22;379;49.022;12.148;2023-09-30T12:33:36;20.90;99.90
792;DHT22;379;49.022;12.148;2023-09-30T12:36:04;20.90;99.90
792;DHT22;379;49.022;12.148;2023-09-30T12:38:30;20.90;99.90
792;DHT22;379;49.022;12.148;2023-09-30T12:40:58;20.90;99.90
792;DHT22;379;49.022;12.148;2023-09-30T12:43:26;20.90;99.90
792;DHT22;379;49.022;12.148;2023-09-30T12:45:52;20.90;99.90
792;DHT22;379;49.022;12.148;2023-09-30T12:48:19;20.80;99.90
792;DHT22;379;49.022;12.148;2023-09-30T12:50:47;20.70;99.90
792;DHT22;379;49.022;12.148;2023-09-30T12:53:13;20.70;99.90
792;DHT22;379;49.022;12.148;2023-09-30T12:55:41;20.50;99.90
792;DHT22;379;49.022;12.148;2023-09-30T12:58:11;20.50;99.90
792;DHT22;379;49.022;12.148;2023-09-30T13:00:38;20.40;99.90
792;DHT22;379;49.022;12.148;2023-09-30T13:03:05;20.30;99.90
792;DHT22;379;49.022;12.148;2023-09-30T13:05:33;20.20;99.90
792;DHT22;379;49.022;12.148;2023-09-30T13:08:00;20.20;99.90
792;DHT22;379;49.022;12.148;2023-09-30T13:10:27;20.20;99.90
792;DHT22;379;49.022;12.148;2023-09-30T13:12:55;20.20;99.90
792;DHT22;379;49.022;12.148;2023-09-30T13:15:24;20.00;99.90
792;DHT22;379;49.022;12.148;2023-09-30T13:17:51;19.90;99.90
792;DHT22;379;49.022;12.148;2023-09-30T13:20:18;20.00;99.90
792;DHT22;379;49.022;12.148;2023-09-30T13:22:45;20.00;99.90
792;DHT22;379;49.022;12.148;2023-09-30T13:25:13;20.10;99.90
792;DHT22;379;49.022;12.148;2023-09-30T13:27:41;20.20;99.90
792;DHT22;379;49.022;12.148;2023-09-30T13:30:09;20.20;99.90
792;DHT22;379;49.022;12.148;2023-09-30T13:32:37;20.10;99.90
792;DHT22;379;49.022;12.148;2023-09-30T13:35:05;20.20;99.90
792;DHT22;379;49.022;12.148;2023-09-30T13:37:32;20.30;99.90
792;DHT22;379;49.022;12.148;2023-09-30T13:40:00;20.30;99.90
792;DHT22;379;49.022;12.148;2023-09-30T13:42:27;20.40;99.90
792;DHT22;379;49.022;12.148;2023-09-30T13:44:55;20.40;99.90
792;DHT22;379;49.022;12.148;2023-09-30T13:47:24;20.50;99.90
792;DHT22;379;49.022;12.148;2023-09-30T13:49:52;20.60;99.90
792;DHT22;379;49.022;12.148;2023-09-30T13:52:20;20.70;99.90
792;DHT22;379;49.022;12.148;2023-09-30T13:54:47;20.80;99.90
792;DHT22;379;49.022;12.148;2023-09-30T13:57:14;20.70;99.90
792;DHT22;379;49.022;12.148;2023-09-30T13:59:40;20.70;99.90
792;DHT22;379;49.022;12.148;2023-09-30T14:02:08;20.80;99.90
792;DHT22;379;49.022;12.148;2023-09-30T14:04:35;20.90;99.90
792;DHT22;379;49.022;12.148;2023-09-30T14:07:03;20.90;99.90
792;DHT22;379;49.022;12.148;2023-09-30T14:09:31;20.70;99.90
792;DHT22;379;49.022;12.148;2023-09-30T14:11:58;20.60;99.90
792;DHT22;379;49.022;12.148;2023-09-30T14:14:25;20.50;99.90
792;DHT22;379;49.022;12.148;2023-09-30T14:16:52;20.40;99.90
792;DHT22;379;49.022;12.148;2023-09-30T14:19:18;20.30;99.90
792;DHT22;379;49.022;12.148;2023-09-30T14:21:46;20.20;99.90
792;DHT22;379;49.022;12.148;2023-09-30T14:24:15;20.10;99.90
792;DHT22;379;49.022;12.148;2023-09-30T14:26:42;20.00;99.90
792;DHT22;379;49.022;12.148;2023-09-30T14:29:09;19.90;99.90
792;DHT22;379;49.022;12.148;2023-09-30T14:31:37;19.80;99.90
792;DHT22;379;49.022;12.148;2023-09-30T14:34:04;19.60;99.90
792;DHT22;379;49.022;12.148;2023-09-30T14:36:31;19.50;99.90
792;DHT22;379;49.022;12.148;2023-09-30T14:38:58;19.30;99.90
792;DHT22;379;49.022;12.148;2023-09-30T14:41:26;19.20;99.90
792;DHT22;379;49.022;12.148;2023-09-30T14:43:53;19.20;99.90
792;DHT22;379;49.022;12.148;2023-09-30T14:46:20;19.10;99.90
792;DHT22;379;49.022;12.148;2023-09-30T14:48:47;19.00;99.90
792;DHT22;379;49.022;12.148;2023-09-30T14:51:15;19.00;99.90
792;DHT22;379;49.022;12.148;2023-09-30T14:53:42;18.90;99.90
792;DHT22;379;49.022;12.148;2023-09-30T14:56:15;18.80;99.90
792;DHT22;379;49.022;12.148;2023-09-30T14:58:44;18.70;99.90
792;DHT22;379;49.022;12.148;2023-09-30T15:01:11;18.60;99.90
792;DHT22;379;49.022;12.148;2023-09-30T15:03:38;18.70;99.90
792;DHT22;379;49.022;12.148;2023-09-30T15:06:05;18.60;99.90
792;DHT22;379;49.022;12.148;2023-09-30T15:08:33;18.60;99.90
792;DHT22;379;49.022;12.148;2023-09-30T15:11:00;18.60;99.90
792;DHT22;379;49.022;12.148;2023-09-30T15:13:27;18.50;99.90
792;DHT22;379;49.022;12.148;2023-09-30T15:15:56;18.50;99.90
792;DHT22;379;49.022;12.148;2023-09-30T15:18:22;18.40;99.90
792;DHT22;379;49.022;12.148;2023-09-30T15:20:49;18.40;99.90
792;DHT22;379;49.022;12.148;2023-09-30T15:23:16;18.30;99.90
792;DHT22;379;49.022;12.148;2023-09-30T15:25:44;18.20;99.90
792;DHT22;379;49.022;12.148;2023-09-30T15:28:11;18.20;99.90
792;DHT22;379;49.022;12.148;2023-09-30T15:30:38;18.20;99.90
792;DHT22;379;49.022;12.148;2023-09-30T15:33:06;18.20;99.90
792;DHT22;379;49.022;12.148;2023-09-30T15:35:34;18.10;99.90
792;DHT22;379;49.022;12.148;2023-09-30T15:38:00;18.10;99.90
792;DHT22;379;49.022;12.148;2023-09-30T15:40:27;18.00;99.90
792;DHT22;379;49.022;12.148;2023-09-30T15:42:54;18.00;99.90
792;DHT22;379;49.022;12.148;2023-09-30T15:45:21;17.90;99.90
792;DHT22;379;49.022;12.148;2023-09-30T15:47:48;17.90;99.90
792;DHT22;379;49.022;12.148;2023-09-30T15:50:18;17.80;99.90
792;DHT22;379;49.022;12.148;2023-09-30T15:52:45;17.70;99.90
792;DHT22;379;49.022;12.148;2023-09-30T15:55:12;17.60;99.90
792;DHT22;379;49.022;12.148;2023-09-30T15:57:39;17.50;99.90
792;DHT22;379;49.022;12.148;2023-09-30T16:00:09;17.40;99.90
792;DHT22;379;49.022;12.148;2023-09-30T16:02:36;17.30;99.90
792;DHT22;379;49.022;12.148;2023-09-30T16:05:04;17.20;99.90
792;DHT22;379;49.022;12.148;2023-09-30T16:07:32;17.20;99.90
792;DHT22;379;49.022;12.148;2023-09-30T16:09:59;17.10;99.90
792;DHT22;379;49.022;12.148;2023-09-30T16:12:26;17.00;99.90
792;DHT22;379;49.022;12.148;2023-09-30T16:14:53;17.00;99.90
792;DHT22;379;49.022;12.148;2023-09-30T16:17:19;16.90;99.90
792;DHT22;379;49.022;12.148;2023-09-30T16:19:46;16.90;99.90
792;DHT22;379;49.022;12.148;2023-09-30T16:22:13;16.80;99.90